<?xml version="1.0" encoding="UTF-8" standalone="no" ?>
<gpx xmlns="http://www.topografix.com/GPX/1/1" xmlns:xsi="http://www.w3.org/2001/XMLSchema-instance" xsi:schemaLocation="http://www.topografix.com/GPX/1/1 http://www.topografix.com/GPX/1/1/gpx.xsd" version="1.1" creator="VisuGPX - https://www.visugpx.com">
  <metadata>
    <name>Belledonne - Petit Replomb (Rando-ski)</name>
    <desc><![CDATA[Les conditions météo ne sont pas arrivées à nous clouer à la maison... pourtant. Cette belle vallée nous tend les bras, nous sommes d'ailleurs nombreux à peupler le parking ce samedi. De notre coté nous nous arrêterons à la première petite coulée  de neige déclenchée, trop de risques.
A refaire par neige stabilisée, et par beau temps.]]></desc>
  </metadata>
  <trk>
    <name><![CDATA[Tracé actuel: 27 FEV 2016 08:22]]></name>
    <trkseg>
      <trkpt lat="45.22665" lon="5.99418">
        <ele>1331.56</ele>
        <time>2016-02-27T07:22:31Z</time>
      </trkpt>
      <trkpt lat="45.22663" lon="5.99423">
        <ele>1331.08</ele>
        <time>2016-02-27T07:23:01Z</time>
      </trkpt>
      <trkpt lat="45.22662" lon="5.99424">
        <ele>1330.6</ele>
        <time>2016-02-27T07:23:31Z</time>
      </trkpt>
      <trkpt lat="45.2266" lon="5.99432">
        <ele>1330.6</ele>
        <time>2016-02-27T07:24:01Z</time>
      </trkpt>
      <trkpt lat="45.22656" lon="5.99429">
        <ele>1329.64</ele>
        <time>2016-02-27T07:24:31Z</time>
      </trkpt>
      <trkpt lat="45.22658" lon="5.99423">
        <ele>1329.16</ele>
        <time>2016-02-27T07:25:01Z</time>
      </trkpt>
      <trkpt lat="45.22658" lon="5.99422">
        <ele>1328.2</ele>
        <time>2016-02-27T07:25:31Z</time>
      </trkpt>
      <trkpt lat="45.22662" lon="5.99426">
        <ele>1327.24</ele>
        <time>2016-02-27T07:26:01Z</time>
      </trkpt>
      <trkpt lat="45.22663" lon="5.99426">
        <ele>1327.24</ele>
        <time>2016-02-27T07:26:31Z</time>
      </trkpt>
      <trkpt lat="45.22667" lon="5.9943">
        <ele>1327.24</ele>
        <time>2016-02-27T07:27:01Z</time>
      </trkpt>
      <trkpt lat="45.22666" lon="5.99427">
        <ele>1326.28</ele>
        <time>2016-02-27T07:27:31Z</time>
      </trkpt>
      <trkpt lat="45.22668" lon="5.99426">
        <ele>1326.28</ele>
        <time>2016-02-27T07:28:01Z</time>
      </trkpt>
      <trkpt lat="45.22666" lon="5.99423">
        <ele>1325.8</ele>
        <time>2016-02-27T07:28:31Z</time>
      </trkpt>
      <trkpt lat="45.22666" lon="5.99424">
        <ele>1325.8</ele>
        <time>2016-02-27T07:29:01Z</time>
      </trkpt>
      <trkpt lat="45.2266" lon="5.99427">
        <ele>1325.31</ele>
        <time>2016-02-27T07:29:31Z</time>
      </trkpt>
      <trkpt lat="45.22659" lon="5.99424">
        <ele>1324.83</ele>
        <time>2016-02-27T07:30:01Z</time>
      </trkpt>
      <trkpt lat="45.22662" lon="5.99422">
        <ele>1324.35</ele>
        <time>2016-02-27T07:30:31Z</time>
      </trkpt>
      <trkpt lat="45.22665" lon="5.99419">
        <ele>1323.87</ele>
        <time>2016-02-27T07:31:01Z</time>
      </trkpt>
      <trkpt lat="45.22657" lon="5.99421">
        <ele>1322.91</ele>
        <time>2016-02-27T07:31:31Z</time>
      </trkpt>
      <trkpt lat="45.22667" lon="5.99422">
        <ele>1322.91</ele>
        <time>2016-02-27T07:32:01Z</time>
      </trkpt>
      <trkpt lat="45.22673" lon="5.99416">
        <ele>1321.95</ele>
        <time>2016-02-27T07:32:31Z</time>
      </trkpt>
      <trkpt lat="45.22665" lon="5.99424">
        <ele>1322.43</ele>
        <time>2016-02-27T07:33:01Z</time>
      </trkpt>
      <trkpt lat="45.22662" lon="5.99424">
        <ele>1322.43</ele>
        <time>2016-02-27T07:33:31Z</time>
      </trkpt>
      <trkpt lat="45.22661" lon="5.99426">
        <ele>1322.43</ele>
        <time>2016-02-27T07:34:01Z</time>
      </trkpt>
      <trkpt lat="45.22654" lon="5.99419">
        <ele>1321.47</ele>
        <time>2016-02-27T07:34:31Z</time>
      </trkpt>
      <trkpt lat="45.22659" lon="5.99419">
        <ele>1320.99</ele>
        <time>2016-02-27T07:35:01Z</time>
      </trkpt>
      <trkpt lat="45.22659" lon="5.9942">
        <ele>1319.55</ele>
        <time>2016-02-27T07:35:31Z</time>
      </trkpt>
      <trkpt lat="45.22659" lon="5.99424">
        <ele>1320.99</ele>
        <time>2016-02-27T07:36:01Z</time>
      </trkpt>
      <trkpt lat="45.22664" lon="5.99419">
        <ele>1319.07</ele>
        <time>2016-02-27T07:36:31Z</time>
      </trkpt>
      <trkpt lat="45.22665" lon="5.9942">
        <ele>1319.07</ele>
        <time>2016-02-27T07:37:01Z</time>
      </trkpt>
      <trkpt lat="45.22664" lon="5.99426">
        <ele>1319.07</ele>
        <time>2016-02-27T07:37:31Z</time>
      </trkpt>
      <trkpt lat="45.2266" lon="5.99414">
        <ele>1320.51</ele>
        <time>2016-02-27T07:38:01Z</time>
      </trkpt>
      <trkpt lat="45.22677" lon="5.99406">
        <ele>1316.66</ele>
        <time>2016-02-27T07:38:31Z</time>
      </trkpt>
      <trkpt lat="45.22645" lon="5.99403">
        <ele>1315.22</ele>
        <time>2016-02-27T07:39:01Z</time>
      </trkpt>
      <trkpt lat="45.22613" lon="5.99388">
        <ele>1313.78</ele>
        <time>2016-02-27T07:39:31Z</time>
      </trkpt>
      <trkpt lat="45.2257" lon="5.99377">
        <ele>1313.3</ele>
        <time>2016-02-27T07:40:01Z</time>
      </trkpt>
      <trkpt lat="45.22535" lon="5.99386">
        <ele>1313.78</ele>
        <time>2016-02-27T07:40:31Z</time>
      </trkpt>
      <trkpt lat="45.22512" lon="5.99425">
        <ele>1315.22</ele>
        <time>2016-02-27T07:41:01Z</time>
      </trkpt>
      <trkpt lat="45.22511" lon="5.99471">
        <ele>1314.74</ele>
        <time>2016-02-27T07:41:31Z</time>
      </trkpt>
      <trkpt lat="45.22498" lon="5.99516">
        <ele>1312.82</ele>
        <time>2016-02-27T07:42:01Z</time>
      </trkpt>
      <trkpt lat="45.22478" lon="5.99572">
        <ele>1311.38</ele>
        <time>2016-02-27T07:42:31Z</time>
      </trkpt>
      <trkpt lat="45.22457" lon="5.99613">
        <ele>1311.38</ele>
        <time>2016-02-27T07:43:01Z</time>
      </trkpt>
      <trkpt lat="45.22434" lon="5.99655">
        <ele>1311.38</ele>
        <time>2016-02-27T07:43:31Z</time>
      </trkpt>
      <trkpt lat="45.22397" lon="5.99659">
        <ele>1312.82</ele>
        <time>2016-02-27T07:44:01Z</time>
      </trkpt>
      <trkpt lat="45.22377" lon="5.99634">
        <ele>1313.3</ele>
        <time>2016-02-27T07:44:31Z</time>
      </trkpt>
      <trkpt lat="45.22354" lon="5.99608">
        <ele>1313.78</ele>
        <time>2016-02-27T07:45:01Z</time>
      </trkpt>
      <trkpt lat="45.22333" lon="5.99595">
        <ele>1316.66</ele>
        <time>2016-02-27T07:45:31Z</time>
      </trkpt>
      <trkpt lat="45.22321" lon="5.99577">
        <ele>1321.47</ele>
        <time>2016-02-27T07:46:01Z</time>
      </trkpt>
      <trkpt lat="45.22304" lon="5.99571">
        <ele>1325.8</ele>
        <time>2016-02-27T07:46:31Z</time>
      </trkpt>
      <trkpt lat="45.22289" lon="5.9958">
        <ele>1332.04</ele>
        <time>2016-02-27T07:47:01Z</time>
      </trkpt>
      <trkpt lat="45.22274" lon="5.99594">
        <ele>1336.37</ele>
        <time>2016-02-27T07:47:31Z</time>
      </trkpt>
      <trkpt lat="45.22266" lon="5.99625">
        <ele>1342.14</ele>
        <time>2016-02-27T07:48:01Z</time>
      </trkpt>
      <trkpt lat="45.22255" lon="5.99637">
        <ele>1346.94</ele>
        <time>2016-02-27T07:48:31Z</time>
      </trkpt>
      <trkpt lat="45.22251" lon="5.99641">
        <ele>1345.02</ele>
        <time>2016-02-27T07:49:01Z</time>
      </trkpt>
      <trkpt lat="45.22252" lon="5.9964">
        <ele>1345.98</ele>
        <time>2016-02-27T07:49:31Z</time>
      </trkpt>
      <trkpt lat="45.22249" lon="5.9964">
        <ele>1345.5</ele>
        <time>2016-02-27T07:50:01Z</time>
      </trkpt>
      <trkpt lat="45.22252" lon="5.99637">
        <ele>1344.54</ele>
        <time>2016-02-27T07:50:31Z</time>
      </trkpt>
      <trkpt lat="45.22255" lon="5.9964">
        <ele>1345.02</ele>
        <time>2016-02-27T07:51:01Z</time>
      </trkpt>
      <trkpt lat="45.22253" lon="5.99642">
        <ele>1343.1</ele>
        <time>2016-02-27T07:51:31Z</time>
      </trkpt>
      <trkpt lat="45.22248" lon="5.9964">
        <ele>1344.06</ele>
        <time>2016-02-27T07:52:01Z</time>
      </trkpt>
      <trkpt lat="45.22253" lon="5.9964">
        <ele>1345.02</ele>
        <time>2016-02-27T07:52:31Z</time>
      </trkpt>
      <trkpt lat="45.22255" lon="5.99643">
        <ele>1345.5</ele>
        <time>2016-02-27T07:53:01Z</time>
      </trkpt>
      <trkpt lat="45.22256" lon="5.99643">
        <ele>1345.02</ele>
        <time>2016-02-27T07:53:31Z</time>
      </trkpt>
      <trkpt lat="45.22244" lon="5.99649">
        <ele>1348.87</ele>
        <time>2016-02-27T07:54:01Z</time>
      </trkpt>
      <trkpt lat="45.2223" lon="5.99642">
        <ele>1352.71</ele>
        <time>2016-02-27T07:54:31Z</time>
      </trkpt>
      <trkpt lat="45.22211" lon="5.99637">
        <ele>1358.96</ele>
        <time>2016-02-27T07:55:01Z</time>
      </trkpt>
      <trkpt lat="45.222" lon="5.99633">
        <ele>1364.25</ele>
        <time>2016-02-27T07:55:31Z</time>
      </trkpt>
      <trkpt lat="45.22189" lon="5.9963">
        <ele>1364.73</ele>
        <time>2016-02-27T07:56:01Z</time>
      </trkpt>
      <trkpt lat="45.22181" lon="5.99637">
        <ele>1368.57</ele>
        <time>2016-02-27T07:56:31Z</time>
      </trkpt>
      <trkpt lat="45.22172" lon="5.99651">
        <ele>1374.34</ele>
        <time>2016-02-27T07:57:01Z</time>
      </trkpt>
      <trkpt lat="45.22161" lon="5.99659">
        <ele>1380.59</ele>
        <time>2016-02-27T07:57:31Z</time>
      </trkpt>
      <trkpt lat="45.22148" lon="5.99657">
        <ele>1386.36</ele>
        <time>2016-02-27T07:58:01Z</time>
      </trkpt>
      <trkpt lat="45.22139" lon="5.9965">
        <ele>1389.24</ele>
        <time>2016-02-27T07:58:31Z</time>
      </trkpt>
      <trkpt lat="45.22133" lon="5.99645">
        <ele>1390.2</ele>
        <time>2016-02-27T07:59:01Z</time>
      </trkpt>
      <trkpt lat="45.2213" lon="5.99639">
        <ele>1390.2</ele>
        <time>2016-02-27T07:59:31Z</time>
      </trkpt>
      <trkpt lat="45.22115" lon="5.99647">
        <ele>1394.05</ele>
        <time>2016-02-27T08:00:01Z</time>
      </trkpt>
      <trkpt lat="45.22103" lon="5.9964">
        <ele>1394.05</ele>
        <time>2016-02-27T08:00:31Z</time>
      </trkpt>
      <trkpt lat="45.22099" lon="5.99638">
        <ele>1395.01</ele>
        <time>2016-02-27T08:01:01Z</time>
      </trkpt>
      <trkpt lat="45.22082" lon="5.99601">
        <ele>1394.53</ele>
        <time>2016-02-27T08:01:31Z</time>
      </trkpt>
      <trkpt lat="45.22065" lon="5.99583">
        <ele>1395.01</ele>
        <time>2016-02-27T08:02:01Z</time>
      </trkpt>
      <trkpt lat="45.22047" lon="5.99579">
        <ele>1398.86</ele>
        <time>2016-02-27T08:02:31Z</time>
      </trkpt>
      <trkpt lat="45.2203" lon="5.99574">
        <ele>1403.66</ele>
        <time>2016-02-27T08:03:01Z</time>
      </trkpt>
      <trkpt lat="45.22" lon="5.99553">
        <ele>1407.99</ele>
        <time>2016-02-27T08:03:31Z</time>
      </trkpt>
      <trkpt lat="45.21968" lon="5.9953">
        <ele>1408.47</ele>
        <time>2016-02-27T08:04:01Z</time>
      </trkpt>
      <trkpt lat="45.21936" lon="5.99494">
        <ele>1408.95</ele>
        <time>2016-02-27T08:04:31Z</time>
      </trkpt>
      <trkpt lat="45.21912" lon="5.99462">
        <ele>1407.99</ele>
        <time>2016-02-27T08:05:01Z</time>
      </trkpt>
      <trkpt lat="45.2189" lon="5.99424">
        <ele>1409.91</ele>
        <time>2016-02-27T08:05:31Z</time>
      </trkpt>
      <trkpt lat="45.21879" lon="5.99391">
        <ele>1414.24</ele>
        <time>2016-02-27T08:06:01Z</time>
      </trkpt>
      <trkpt lat="45.21861" lon="5.9936">
        <ele>1417.6</ele>
        <time>2016-02-27T08:06:31Z</time>
      </trkpt>
      <trkpt lat="45.21853" lon="5.9932">
        <ele>1420.97</ele>
        <time>2016-02-27T08:07:01Z</time>
      </trkpt>
      <trkpt lat="45.21835" lon="5.99271">
        <ele>1419.04</ele>
        <time>2016-02-27T08:07:31Z</time>
      </trkpt>
      <trkpt lat="45.21823" lon="5.99237">
        <ele>1420.49</ele>
        <time>2016-02-27T08:08:01Z</time>
      </trkpt>
      <trkpt lat="45.21804" lon="5.99197">
        <ele>1423.37</ele>
        <time>2016-02-27T08:08:31Z</time>
      </trkpt>
      <trkpt lat="45.21795" lon="5.99165">
        <ele>1427.21</ele>
        <time>2016-02-27T08:09:01Z</time>
      </trkpt>
      <trkpt lat="45.21762" lon="5.99148">
        <ele>1430.1</ele>
        <time>2016-02-27T08:09:31Z</time>
      </trkpt>
      <trkpt lat="45.21754" lon="5.99145">
        <ele>1431.54</ele>
        <time>2016-02-27T08:10:01Z</time>
      </trkpt>
      <trkpt lat="45.21754" lon="5.99128">
        <ele>1431.54</ele>
        <time>2016-02-27T08:10:31Z</time>
      </trkpt>
      <trkpt lat="45.21753" lon="5.99106">
        <ele>1434.42</ele>
        <time>2016-02-27T08:11:01Z</time>
      </trkpt>
      <trkpt lat="45.21763" lon="5.99095">
        <ele>1433.94</ele>
        <time>2016-02-27T08:11:31Z</time>
      </trkpt>
      <trkpt lat="45.2176" lon="5.99074">
        <ele>1434.91</ele>
        <time>2016-02-27T08:12:01Z</time>
      </trkpt>
      <trkpt lat="45.21754" lon="5.99066">
        <ele>1434.91</ele>
        <time>2016-02-27T08:12:31Z</time>
      </trkpt>
      <trkpt lat="45.21744" lon="5.99047">
        <ele>1437.79</ele>
        <time>2016-02-27T08:13:01Z</time>
      </trkpt>
      <trkpt lat="45.21725" lon="5.99028">
        <ele>1443.08</ele>
        <time>2016-02-27T08:13:31Z</time>
      </trkpt>
      <trkpt lat="45.21704" lon="5.99007">
        <ele>1447.88</ele>
        <time>2016-02-27T08:14:01Z</time>
      </trkpt>
      <trkpt lat="45.21682" lon="5.98979">
        <ele>1452.21</ele>
        <time>2016-02-27T08:14:31Z</time>
      </trkpt>
      <trkpt lat="45.21669" lon="5.98956">
        <ele>1456.05</ele>
        <time>2016-02-27T08:15:01Z</time>
      </trkpt>
      <trkpt lat="45.21654" lon="5.98939">
        <ele>1461.34</ele>
        <time>2016-02-27T08:15:31Z</time>
      </trkpt>
      <trkpt lat="45.21636" lon="5.98915">
        <ele>1466.15</ele>
        <time>2016-02-27T08:16:01Z</time>
      </trkpt>
      <trkpt lat="45.21631" lon="5.98893">
        <ele>1471.44</ele>
        <time>2016-02-27T08:16:31Z</time>
      </trkpt>
      <trkpt lat="45.21619" lon="5.98866">
        <ele>1476.72</ele>
        <time>2016-02-27T08:17:01Z</time>
      </trkpt>
      <trkpt lat="45.21608" lon="5.98839">
        <ele>1481.53</ele>
        <time>2016-02-27T08:17:31Z</time>
      </trkpt>
      <trkpt lat="45.21599" lon="5.98813">
        <ele>1486.34</ele>
        <time>2016-02-27T08:18:00Z</time>
      </trkpt>
      <trkpt lat="45.21593" lon="5.98797">
        <ele>1489.7</ele>
        <time>2016-02-27T08:18:30Z</time>
      </trkpt>
      <trkpt lat="45.21586" lon="5.9878">
        <ele>1495.95</ele>
        <time>2016-02-27T08:19:00Z</time>
      </trkpt>
      <trkpt lat="45.21577" lon="5.98766">
        <ele>1498.35</ele>
        <time>2016-02-27T08:19:30Z</time>
      </trkpt>
      <trkpt lat="45.21573" lon="5.9875">
        <ele>1504.6</ele>
        <time>2016-02-27T08:20:00Z</time>
      </trkpt>
      <trkpt lat="45.21555" lon="5.98733">
        <ele>1510.85</ele>
        <time>2016-02-27T08:20:30Z</time>
      </trkpt>
      <trkpt lat="45.21547" lon="5.98716">
        <ele>1515.18</ele>
        <time>2016-02-27T08:21:00Z</time>
      </trkpt>
      <trkpt lat="45.21536" lon="5.98707">
        <ele>1521.9</ele>
        <time>2016-02-27T08:21:30Z</time>
      </trkpt>
      <trkpt lat="45.2153" lon="5.98688">
        <ele>1527.19</ele>
        <time>2016-02-27T08:22:00Z</time>
      </trkpt>
      <trkpt lat="45.21521" lon="5.98673">
        <ele>1532</ele>
        <time>2016-02-27T08:22:30Z</time>
      </trkpt>
      <trkpt lat="45.2152" lon="5.98656">
        <ele>1536.8</ele>
        <time>2016-02-27T08:23:00Z</time>
      </trkpt>
      <trkpt lat="45.21511" lon="5.98645">
        <ele>1541.61</ele>
        <time>2016-02-27T08:23:30Z</time>
      </trkpt>
      <trkpt lat="45.21501" lon="5.98642">
        <ele>1546.42</ele>
        <time>2016-02-27T08:23:59Z</time>
      </trkpt>
      <trkpt lat="45.21499" lon="5.98626">
        <ele>1548.34</ele>
        <time>2016-02-27T08:24:30Z</time>
      </trkpt>
      <trkpt lat="45.21496" lon="5.98615">
        <ele>1553.15</ele>
        <time>2016-02-27T08:25:00Z</time>
      </trkpt>
      <trkpt lat="45.21493" lon="5.98596">
        <ele>1556.99</ele>
        <time>2016-02-27T08:25:30Z</time>
      </trkpt>
      <trkpt lat="45.21488" lon="5.98591">
        <ele>1561.8</ele>
        <time>2016-02-27T08:26:00Z</time>
      </trkpt>
      <trkpt lat="45.21474" lon="5.98591">
        <ele>1566.12</ele>
        <time>2016-02-27T08:26:30Z</time>
      </trkpt>
      <trkpt lat="45.21477" lon="5.98571">
        <ele>1570.45</ele>
        <time>2016-02-27T08:27:00Z</time>
      </trkpt>
      <trkpt lat="45.21466" lon="5.98571">
        <ele>1574.3</ele>
        <time>2016-02-27T08:27:30Z</time>
      </trkpt>
      <trkpt lat="45.21465" lon="5.9855">
        <ele>1578.62</ele>
        <time>2016-02-27T08:28:00Z</time>
      </trkpt>
      <trkpt lat="45.21463" lon="5.98539">
        <ele>1580.54</ele>
        <time>2016-02-27T08:28:30Z</time>
      </trkpt>
      <trkpt lat="45.21461" lon="5.98539">
        <ele>1581.99</ele>
        <time>2016-02-27T08:29:00Z</time>
      </trkpt>
      <trkpt lat="45.2145" lon="5.98549">
        <ele>1587.75</ele>
        <time>2016-02-27T08:29:30Z</time>
      </trkpt>
      <trkpt lat="45.21442" lon="5.98535">
        <ele>1590.16</ele>
        <time>2016-02-27T08:30:00Z</time>
      </trkpt>
      <trkpt lat="45.21435" lon="5.98531">
        <ele>1594.48</ele>
        <time>2016-02-27T08:30:30Z</time>
      </trkpt>
      <trkpt lat="45.21434" lon="5.98516">
        <ele>1597.85</ele>
        <time>2016-02-27T08:31:00Z</time>
      </trkpt>
      <trkpt lat="45.21433" lon="5.98511">
        <ele>1601.69</ele>
        <time>2016-02-27T08:31:30Z</time>
      </trkpt>
      <trkpt lat="45.21425" lon="5.98511">
        <ele>1604.1</ele>
        <time>2016-02-27T08:32:00Z</time>
      </trkpt>
      <trkpt lat="45.21428" lon="5.98493">
        <ele>1606.5</ele>
        <time>2016-02-27T08:32:30Z</time>
      </trkpt>
      <trkpt lat="45.21424" lon="5.98492">
        <ele>1609.86</ele>
        <time>2016-02-27T08:33:00Z</time>
      </trkpt>
      <trkpt lat="45.21421" lon="5.98475">
        <ele>1614.67</ele>
        <time>2016-02-27T08:33:30Z</time>
      </trkpt>
      <trkpt lat="45.21412" lon="5.98485">
        <ele>1618.52</ele>
        <time>2016-02-27T08:34:00Z</time>
      </trkpt>
      <trkpt lat="45.21411" lon="5.98489">
        <ele>1619.48</ele>
        <time>2016-02-27T08:34:30Z</time>
      </trkpt>
      <trkpt lat="45.21407" lon="5.98473">
        <ele>1622.36</ele>
        <time>2016-02-27T08:35:00Z</time>
      </trkpt>
      <trkpt lat="45.21404" lon="5.98461">
        <ele>1625.73</ele>
        <time>2016-02-27T08:35:30Z</time>
      </trkpt>
      <trkpt lat="45.21398" lon="5.98462">
        <ele>1629.09</ele>
        <time>2016-02-27T08:36:00Z</time>
      </trkpt>
      <trkpt lat="45.21384" lon="5.98476">
        <ele>1633.9</ele>
        <time>2016-02-27T08:36:30Z</time>
      </trkpt>
      <trkpt lat="45.2138" lon="5.98465">
        <ele>1637.26</ele>
        <time>2016-02-27T08:37:00Z</time>
      </trkpt>
      <trkpt lat="45.2138" lon="5.98461">
        <ele>1641.59</ele>
        <time>2016-02-27T08:37:30Z</time>
      </trkpt>
      <trkpt lat="45.21375" lon="5.98457">
        <ele>1644.95</ele>
        <time>2016-02-27T08:38:00Z</time>
      </trkpt>
      <trkpt lat="45.21373" lon="5.98458">
        <ele>1645.43</ele>
        <time>2016-02-27T08:38:30Z</time>
      </trkpt>
      <trkpt lat="45.21366" lon="5.98449">
        <ele>1647.84</ele>
        <time>2016-02-27T08:39:00Z</time>
      </trkpt>
      <trkpt lat="45.21364" lon="5.98433">
        <ele>1654.09</ele>
        <time>2016-02-27T08:39:30Z</time>
      </trkpt>
      <trkpt lat="45.21359" lon="5.98416">
        <ele>1657.93</ele>
        <time>2016-02-27T08:40:00Z</time>
      </trkpt>
      <trkpt lat="45.21356" lon="5.98416">
        <ele>1661.78</ele>
        <time>2016-02-27T08:40:30Z</time>
      </trkpt>
      <trkpt lat="45.21354" lon="5.98412">
        <ele>1663.7</ele>
        <time>2016-02-27T08:41:00Z</time>
      </trkpt>
      <trkpt lat="45.21354" lon="5.98401">
        <ele>1668.51</ele>
        <time>2016-02-27T08:41:30Z</time>
      </trkpt>
      <trkpt lat="45.21353" lon="5.98389">
        <ele>1672.35</ele>
        <time>2016-02-27T08:42:00Z</time>
      </trkpt>
      <trkpt lat="45.21351" lon="5.98374">
        <ele>1675.23</ele>
        <time>2016-02-27T08:42:29Z</time>
      </trkpt>
      <trkpt lat="45.2135" lon="5.98378">
        <ele>1677.64</ele>
        <time>2016-02-27T08:43:00Z</time>
      </trkpt>
      <trkpt lat="45.21348" lon="5.98372">
        <ele>1680.52</ele>
        <time>2016-02-27T08:43:30Z</time>
      </trkpt>
      <trkpt lat="45.2134" lon="5.98365">
        <ele>1684.85</ele>
        <time>2016-02-27T08:44:00Z</time>
      </trkpt>
      <trkpt lat="45.21336" lon="5.98356">
        <ele>1686.29</ele>
        <time>2016-02-27T08:44:30Z</time>
      </trkpt>
      <trkpt lat="45.2134" lon="5.98356">
        <ele>1687.73</ele>
        <time>2016-02-27T08:44:59Z</time>
      </trkpt>
      <trkpt lat="45.21338" lon="5.98357">
        <ele>1687.73</ele>
        <time>2016-02-27T08:45:30Z</time>
      </trkpt>
      <trkpt lat="45.21325" lon="5.98378">
        <ele>1690.62</ele>
        <time>2016-02-27T08:46:00Z</time>
      </trkpt>
      <trkpt lat="45.21319" lon="5.98371">
        <ele>1693.02</ele>
        <time>2016-02-27T08:46:30Z</time>
      </trkpt>
      <trkpt lat="45.21321" lon="5.98362">
        <ele>1693.98</ele>
        <time>2016-02-27T08:47:00Z</time>
      </trkpt>
      <trkpt lat="45.2132" lon="5.98361">
        <ele>1695.42</ele>
        <time>2016-02-27T08:47:30Z</time>
      </trkpt>
      <trkpt lat="45.21325" lon="5.98354">
        <ele>1695.42</ele>
        <time>2016-02-27T08:48:00Z</time>
      </trkpt>
      <trkpt lat="45.2132" lon="5.98364">
        <ele>1697.34</ele>
        <time>2016-02-27T08:48:30Z</time>
      </trkpt>
      <trkpt lat="45.21317" lon="5.98355">
        <ele>1700.23</ele>
        <time>2016-02-27T08:49:00Z</time>
      </trkpt>
      <trkpt lat="45.21315" lon="5.98357">
        <ele>1703.59</ele>
        <time>2016-02-27T08:49:30Z</time>
      </trkpt>
      <trkpt lat="45.21307" lon="5.98362">
        <ele>1705.04</ele>
        <time>2016-02-27T08:50:00Z</time>
      </trkpt>
      <trkpt lat="45.21308" lon="5.98345">
        <ele>1708.4</ele>
        <time>2016-02-27T08:50:30Z</time>
      </trkpt>
      <trkpt lat="45.213" lon="5.98355">
        <ele>1712.73</ele>
        <time>2016-02-27T08:51:00Z</time>
      </trkpt>
      <trkpt lat="45.21289" lon="5.98365">
        <ele>1718.01</ele>
        <time>2016-02-27T08:51:30Z</time>
      </trkpt>
      <trkpt lat="45.21278" lon="5.98385">
        <ele>1719.94</ele>
        <time>2016-02-27T08:52:00Z</time>
      </trkpt>
      <trkpt lat="45.21271" lon="5.984">
        <ele>1722.34</ele>
        <time>2016-02-27T08:52:30Z</time>
      </trkpt>
      <trkpt lat="45.21268" lon="5.98405">
        <ele>1724.74</ele>
        <time>2016-02-27T08:53:00Z</time>
      </trkpt>
      <trkpt lat="45.21262" lon="5.98401">
        <ele>1727.15</ele>
        <time>2016-02-27T08:53:30Z</time>
      </trkpt>
      <trkpt lat="45.21259" lon="5.98398">
        <ele>1730.03</ele>
        <time>2016-02-27T08:54:00Z</time>
      </trkpt>
      <trkpt lat="45.21253" lon="5.98403">
        <ele>1734.36</ele>
        <time>2016-02-27T08:54:30Z</time>
      </trkpt>
      <trkpt lat="45.21253" lon="5.98387">
        <ele>1737.24</ele>
        <time>2016-02-27T08:55:00Z</time>
      </trkpt>
      <trkpt lat="45.21247" lon="5.98393">
        <ele>1742.05</ele>
        <time>2016-02-27T08:55:30Z</time>
      </trkpt>
      <trkpt lat="45.21242" lon="5.98402">
        <ele>1745.89</ele>
        <time>2016-02-27T08:56:00Z</time>
      </trkpt>
      <trkpt lat="45.21241" lon="5.98385">
        <ele>1748.78</ele>
        <time>2016-02-27T08:56:30Z</time>
      </trkpt>
      <trkpt lat="45.21239" lon="5.9839">
        <ele>1753.1</ele>
        <time>2016-02-27T08:57:00Z</time>
      </trkpt>
      <trkpt lat="45.21222" lon="5.98418">
        <ele>1755.99</ele>
        <time>2016-02-27T08:57:30Z</time>
      </trkpt>
      <trkpt lat="45.21213" lon="5.98443">
        <ele>1757.91</ele>
        <time>2016-02-27T08:58:00Z</time>
      </trkpt>
      <trkpt lat="45.21206" lon="5.98462">
        <ele>1761.75</ele>
        <time>2016-02-27T08:58:30Z</time>
      </trkpt>
      <trkpt lat="45.21215" lon="5.98482">
        <ele>1763.2</ele>
        <time>2016-02-27T08:59:00Z</time>
      </trkpt>
      <trkpt lat="45.21218" lon="5.985">
        <ele>1766.56</ele>
        <time>2016-02-27T08:59:30Z</time>
      </trkpt>
      <trkpt lat="45.21224" lon="5.98519">
        <ele>1770.89</ele>
        <time>2016-02-27T09:00:00Z</time>
      </trkpt>
      <trkpt lat="45.21223" lon="5.98545">
        <ele>1775.21</ele>
        <time>2016-02-27T09:00:30Z</time>
      </trkpt>
      <trkpt lat="45.21219" lon="5.9857">
        <ele>1778.1</ele>
        <time>2016-02-27T09:01:00Z</time>
      </trkpt>
      <trkpt lat="45.21213" lon="5.98593">
        <ele>1782.9</ele>
        <time>2016-02-27T09:01:30Z</time>
      </trkpt>
      <trkpt lat="45.21204" lon="5.98611">
        <ele>1787.71</ele>
        <time>2016-02-27T09:02:00Z</time>
      </trkpt>
      <trkpt lat="45.21204" lon="5.98608">
        <ele>1785.79</ele>
        <time>2016-02-27T09:02:30Z</time>
      </trkpt>
      <trkpt lat="45.21205" lon="5.9861">
        <ele>1784.82</ele>
        <time>2016-02-27T09:03:00Z</time>
      </trkpt>
      <trkpt lat="45.21205" lon="5.98608">
        <ele>1785.79</ele>
        <time>2016-02-27T09:03:30Z</time>
      </trkpt>
      <trkpt lat="45.21205" lon="5.98609">
        <ele>1786.27</ele>
        <time>2016-02-27T09:04:00Z</time>
      </trkpt>
      <trkpt lat="45.21186" lon="5.98613">
        <ele>1789.15</ele>
        <time>2016-02-27T09:04:30Z</time>
      </trkpt>
      <trkpt lat="45.21173" lon="5.98614">
        <ele>1794.44</ele>
        <time>2016-02-27T09:05:00Z</time>
      </trkpt>
      <trkpt lat="45.21183" lon="5.98594">
        <ele>1796.36</ele>
        <time>2016-02-27T09:05:30Z</time>
      </trkpt>
      <trkpt lat="45.21179" lon="5.98596">
        <ele>1800.21</ele>
        <time>2016-02-27T09:06:00Z</time>
      </trkpt>
      <trkpt lat="45.21162" lon="5.98603">
        <ele>1804.53</ele>
        <time>2016-02-27T09:06:30Z</time>
      </trkpt>
      <trkpt lat="45.21155" lon="5.98608">
        <ele>1807.9</ele>
        <time>2016-02-27T09:07:00Z</time>
      </trkpt>
      <trkpt lat="45.21152" lon="5.98623">
        <ele>1811.74</ele>
        <time>2016-02-27T09:07:30Z</time>
      </trkpt>
      <trkpt lat="45.21143" lon="5.98623">
        <ele>1815.59</ele>
        <time>2016-02-27T09:08:00Z</time>
      </trkpt>
      <trkpt lat="45.21141" lon="5.98606">
        <ele>1818.47</ele>
        <time>2016-02-27T09:08:30Z</time>
      </trkpt>
      <trkpt lat="45.2114" lon="5.98588">
        <ele>1820.87</ele>
        <time>2016-02-27T09:09:00Z</time>
      </trkpt>
      <trkpt lat="45.21142" lon="5.98579">
        <ele>1823.28</ele>
        <time>2016-02-27T09:09:30Z</time>
      </trkpt>
      <trkpt lat="45.21136" lon="5.98579">
        <ele>1825.68</ele>
        <time>2016-02-27T09:10:00Z</time>
      </trkpt>
      <trkpt lat="45.21132" lon="5.98584">
        <ele>1828.56</ele>
        <time>2016-02-27T09:10:30Z</time>
      </trkpt>
      <trkpt lat="45.21131" lon="5.98569">
        <ele>1831.45</ele>
        <time>2016-02-27T09:11:00Z</time>
      </trkpt>
      <trkpt lat="45.21126" lon="5.98574">
        <ele>1835.77</ele>
        <time>2016-02-27T09:11:30Z</time>
      </trkpt>
      <trkpt lat="45.21126" lon="5.98564">
        <ele>1838.18</ele>
        <time>2016-02-27T09:12:00Z</time>
      </trkpt>
      <trkpt lat="45.21131" lon="5.98544">
        <ele>1841.06</ele>
        <time>2016-02-27T09:12:30Z</time>
      </trkpt>
      <trkpt lat="45.21123" lon="5.98557">
        <ele>1842.98</ele>
        <time>2016-02-27T09:13:00Z</time>
      </trkpt>
      <trkpt lat="45.21113" lon="5.98566">
        <ele>1846.83</ele>
        <time>2016-02-27T09:13:30Z</time>
      </trkpt>
      <trkpt lat="45.21113" lon="5.98556">
        <ele>1850.68</ele>
        <time>2016-02-27T09:14:00Z</time>
      </trkpt>
      <trkpt lat="45.21105" lon="5.98558">
        <ele>1855</ele>
        <time>2016-02-27T09:14:30Z</time>
      </trkpt>
      <trkpt lat="45.21104" lon="5.98552">
        <ele>1857.4</ele>
        <time>2016-02-27T09:15:00Z</time>
      </trkpt>
      <trkpt lat="45.21097" lon="5.98559">
        <ele>1859.33</ele>
        <time>2016-02-27T09:15:30Z</time>
      </trkpt>
      <trkpt lat="45.21088" lon="5.98568">
        <ele>1864.13</ele>
        <time>2016-02-27T09:16:00Z</time>
      </trkpt>
      <trkpt lat="45.21083" lon="5.98569">
        <ele>1868.46</ele>
        <time>2016-02-27T09:16:30Z</time>
      </trkpt>
      <trkpt lat="45.21077" lon="5.98575">
        <ele>1871.34</ele>
        <time>2016-02-27T09:17:00Z</time>
      </trkpt>
      <trkpt lat="45.21071" lon="5.98587">
        <ele>1874.23</ele>
        <time>2016-02-27T09:17:30Z</time>
      </trkpt>
      <trkpt lat="45.21067" lon="5.98573">
        <ele>1877.59</ele>
        <time>2016-02-27T09:18:00Z</time>
      </trkpt>
      <trkpt lat="45.21064" lon="5.98583">
        <ele>1882.88</ele>
        <time>2016-02-27T09:18:30Z</time>
      </trkpt>
      <trkpt lat="45.21059" lon="5.98593">
        <ele>1884.8</ele>
        <time>2016-02-27T09:19:00Z</time>
      </trkpt>
      <trkpt lat="45.21054" lon="5.98577">
        <ele>1887.69</ele>
        <time>2016-02-27T09:19:30Z</time>
      </trkpt>
      <trkpt lat="45.21053" lon="5.98569">
        <ele>1890.57</ele>
        <time>2016-02-27T09:20:00Z</time>
      </trkpt>
      <trkpt lat="45.21049" lon="5.98587">
        <ele>1894.9</ele>
        <time>2016-02-27T09:20:30Z</time>
      </trkpt>
      <trkpt lat="45.21046" lon="5.98604">
        <ele>1896.82</ele>
        <time>2016-02-27T09:21:00Z</time>
      </trkpt>
      <trkpt lat="45.21045" lon="5.98622">
        <ele>1903.55</ele>
        <time>2016-02-27T09:21:30Z</time>
      </trkpt>
      <trkpt lat="45.21042" lon="5.98634">
        <ele>1905.47</ele>
        <time>2016-02-27T09:22:00Z</time>
      </trkpt>
      <trkpt lat="45.21031" lon="5.98638">
        <ele>1907.87</ele>
        <time>2016-02-27T09:22:30Z</time>
      </trkpt>
      <trkpt lat="45.21029" lon="5.98629">
        <ele>1911.24</ele>
        <time>2016-02-27T09:23:00Z</time>
      </trkpt>
      <trkpt lat="45.21025" lon="5.98629">
        <ele>1918.45</ele>
        <time>2016-02-27T09:23:30Z</time>
      </trkpt>
      <trkpt lat="45.21019" lon="5.98629">
        <ele>1920.37</ele>
        <time>2016-02-27T09:24:00Z</time>
      </trkpt>
      <trkpt lat="45.2101" lon="5.98628">
        <ele>1920.85</ele>
        <time>2016-02-27T09:24:30Z</time>
      </trkpt>
      <trkpt lat="45.2101" lon="5.98623">
        <ele>1922.29</ele>
        <time>2016-02-27T09:25:00Z</time>
      </trkpt>
      <trkpt lat="45.21008" lon="5.98622">
        <ele>1923.25</ele>
        <time>2016-02-27T09:25:30Z</time>
      </trkpt>
      <trkpt lat="45.21009" lon="5.9862">
        <ele>1923.25</ele>
        <time>2016-02-27T09:26:00Z</time>
      </trkpt>
      <trkpt lat="45.21009" lon="5.98621">
        <ele>1925.66</ele>
        <time>2016-02-27T09:26:30Z</time>
      </trkpt>
      <trkpt lat="45.2101" lon="5.9862">
        <ele>1924.7</ele>
        <time>2016-02-27T09:27:00Z</time>
      </trkpt>
      <trkpt lat="45.2101" lon="5.98615">
        <ele>1927.1</ele>
        <time>2016-02-27T09:27:30Z</time>
      </trkpt>
      <trkpt lat="45.21009" lon="5.98616">
        <ele>1927.58</ele>
        <time>2016-02-27T09:28:00Z</time>
      </trkpt>
      <trkpt lat="45.2101" lon="5.98616">
        <ele>1925.66</ele>
        <time>2016-02-27T09:28:30Z</time>
      </trkpt>
      <trkpt lat="45.21" lon="5.98617">
        <ele>1929.02</ele>
        <time>2016-02-27T09:29:00Z</time>
      </trkpt>
      <trkpt lat="45.20997" lon="5.98609">
        <ele>1932.87</ele>
        <time>2016-02-27T09:29:30Z</time>
      </trkpt>
      <trkpt lat="45.20994" lon="5.98595">
        <ele>1939.12</ele>
        <time>2016-02-27T09:30:00Z</time>
      </trkpt>
      <trkpt lat="45.20983" lon="5.98607">
        <ele>1945.36</ele>
        <time>2016-02-27T09:30:30Z</time>
      </trkpt>
      <trkpt lat="45.20967" lon="5.98612">
        <ele>1943.92</ele>
        <time>2016-02-27T09:31:00Z</time>
      </trkpt>
      <trkpt lat="45.20964" lon="5.98609">
        <ele>1944.4</ele>
        <time>2016-02-27T09:31:30Z</time>
      </trkpt>
      <trkpt lat="45.20965" lon="5.98609">
        <ele>1942.96</ele>
        <time>2016-02-27T09:32:00Z</time>
      </trkpt>
      <trkpt lat="45.20965" lon="5.98611">
        <ele>1944.4</ele>
        <time>2016-02-27T09:32:30Z</time>
      </trkpt>
      <trkpt lat="45.20966" lon="5.98609">
        <ele>1941.52</ele>
        <time>2016-02-27T09:33:00Z</time>
      </trkpt>
      <trkpt lat="45.20966" lon="5.9861">
        <ele>1935.27</ele>
        <time>2016-02-27T09:33:30Z</time>
      </trkpt>
      <trkpt lat="45.20965" lon="5.98608">
        <ele>1940.56</ele>
        <time>2016-02-27T09:34:00Z</time>
      </trkpt>
      <trkpt lat="45.20967" lon="5.98607">
        <ele>1941.52</ele>
        <time>2016-02-27T09:34:30Z</time>
      </trkpt>
      <trkpt lat="45.20965" lon="5.98608">
        <ele>1942.48</ele>
        <time>2016-02-27T09:35:00Z</time>
      </trkpt>
      <trkpt lat="45.20965" lon="5.9861">
        <ele>1942.48</ele>
        <time>2016-02-27T09:35:30Z</time>
      </trkpt>
      <trkpt lat="45.20945" lon="5.9859">
        <ele>1937.67</ele>
        <time>2016-02-27T09:36:00Z</time>
      </trkpt>
      <trkpt lat="45.20924" lon="5.98573">
        <ele>1940.08</ele>
        <time>2016-02-27T09:36:30Z</time>
      </trkpt>
      <trkpt lat="45.20911" lon="5.98567">
        <ele>1940.08</ele>
        <time>2016-02-27T09:37:00Z</time>
      </trkpt>
      <trkpt lat="45.20889" lon="5.98558">
        <ele>1940.56</ele>
        <time>2016-02-27T09:37:30Z</time>
      </trkpt>
      <trkpt lat="45.20867" lon="5.98554">
        <ele>1940.56</ele>
        <time>2016-02-27T09:38:00Z</time>
      </trkpt>
      <trkpt lat="45.20848" lon="5.98545">
        <ele>1942</ele>
        <time>2016-02-27T09:38:30Z</time>
      </trkpt>
      <trkpt lat="45.20842" lon="5.9854">
        <ele>1942</ele>
        <time>2016-02-27T09:39:00Z</time>
      </trkpt>
      <trkpt lat="45.20822" lon="5.98534">
        <ele>1940.08</ele>
        <time>2016-02-27T09:39:30Z</time>
      </trkpt>
      <trkpt lat="45.20801" lon="5.98534">
        <ele>1939.12</ele>
        <time>2016-02-27T09:40:00Z</time>
      </trkpt>
      <trkpt lat="45.20785" lon="5.98535">
        <ele>1940.08</ele>
        <time>2016-02-27T09:40:30Z</time>
      </trkpt>
      <trkpt lat="45.20779" lon="5.98543">
        <ele>1938.64</ele>
        <time>2016-02-27T09:41:00Z</time>
      </trkpt>
      <trkpt lat="45.20776" lon="5.98538">
        <ele>1942</ele>
        <time>2016-02-27T09:41:30Z</time>
      </trkpt>
      <trkpt lat="45.20765" lon="5.98541">
        <ele>1944.88</ele>
        <time>2016-02-27T09:42:00Z</time>
      </trkpt>
      <trkpt lat="45.20764" lon="5.9854">
        <ele>1946.81</ele>
        <time>2016-02-27T09:42:30Z</time>
      </trkpt>
      <trkpt lat="45.20751" lon="5.98545">
        <ele>1946.33</ele>
        <time>2016-02-27T09:43:00Z</time>
      </trkpt>
      <trkpt lat="45.20737" lon="5.9855">
        <ele>1949.21</ele>
        <time>2016-02-27T09:43:30Z</time>
      </trkpt>
      <trkpt lat="45.20725" lon="5.98555">
        <ele>1948.25</ele>
        <time>2016-02-27T09:44:00Z</time>
      </trkpt>
      <trkpt lat="45.2071" lon="5.98558">
        <ele>1947.77</ele>
        <time>2016-02-27T09:44:30Z</time>
      </trkpt>
      <trkpt lat="45.20698" lon="5.98568">
        <ele>1949.69</ele>
        <time>2016-02-27T09:45:00Z</time>
      </trkpt>
      <trkpt lat="45.20683" lon="5.98578">
        <ele>1950.65</ele>
        <time>2016-02-27T09:45:30Z</time>
      </trkpt>
      <trkpt lat="45.20671" lon="5.98585">
        <ele>1949.69</ele>
        <time>2016-02-27T09:46:00Z</time>
      </trkpt>
      <trkpt lat="45.20659" lon="5.98594">
        <ele>1947.77</ele>
        <time>2016-02-27T09:46:30Z</time>
      </trkpt>
      <trkpt lat="45.20643" lon="5.98605">
        <ele>1947.29</ele>
        <time>2016-02-27T09:47:00Z</time>
      </trkpt>
      <trkpt lat="45.20629" lon="5.9862">
        <ele>1948.73</ele>
        <time>2016-02-27T09:47:30Z</time>
      </trkpt>
      <trkpt lat="45.20621" lon="5.98633">
        <ele>1951.61</ele>
        <time>2016-02-27T09:48:00Z</time>
      </trkpt>
      <trkpt lat="45.20613" lon="5.98647">
        <ele>1952.09</ele>
        <time>2016-02-27T09:48:30Z</time>
      </trkpt>
      <trkpt lat="45.20606" lon="5.98658">
        <ele>1950.65</ele>
        <time>2016-02-27T09:49:00Z</time>
      </trkpt>
      <trkpt lat="45.20604" lon="5.98671">
        <ele>1951.13</ele>
        <time>2016-02-27T09:49:30Z</time>
      </trkpt>
      <trkpt lat="45.206" lon="5.98681">
        <ele>1953.06</ele>
        <time>2016-02-27T09:50:00Z</time>
      </trkpt>
      <trkpt lat="45.20592" lon="5.98696">
        <ele>1956.9</ele>
        <time>2016-02-27T09:50:30Z</time>
      </trkpt>
      <trkpt lat="45.20585" lon="5.98708">
        <ele>1959.78</ele>
        <time>2016-02-27T09:51:00Z</time>
      </trkpt>
      <trkpt lat="45.20577" lon="5.98719">
        <ele>1964.59</ele>
        <time>2016-02-27T09:51:30Z</time>
      </trkpt>
      <trkpt lat="45.2057" lon="5.98725">
        <ele>1966.99</ele>
        <time>2016-02-27T09:52:00Z</time>
      </trkpt>
      <trkpt lat="45.20567" lon="5.98713">
        <ele>1969.4</ele>
        <time>2016-02-27T09:52:30Z</time>
      </trkpt>
      <trkpt lat="45.20564" lon="5.98711">
        <ele>1972.76</ele>
        <time>2016-02-27T09:53:00Z</time>
      </trkpt>
      <trkpt lat="45.20553" lon="5.98718">
        <ele>1975.65</ele>
        <time>2016-02-27T09:53:30Z</time>
      </trkpt>
      <trkpt lat="45.2054" lon="5.98727">
        <ele>1977.57</ele>
        <time>2016-02-27T09:54:00Z</time>
      </trkpt>
      <trkpt lat="45.2053" lon="5.98735">
        <ele>1980.45</ele>
        <time>2016-02-27T09:54:30Z</time>
      </trkpt>
      <trkpt lat="45.20522" lon="5.98743">
        <ele>1983.34</ele>
        <time>2016-02-27T09:55:00Z</time>
      </trkpt>
      <trkpt lat="45.20516" lon="5.98749">
        <ele>1986.22</ele>
        <time>2016-02-27T09:55:30Z</time>
      </trkpt>
      <trkpt lat="45.20507" lon="5.98755">
        <ele>1987.66</ele>
        <time>2016-02-27T09:56:00Z</time>
      </trkpt>
      <trkpt lat="45.20496" lon="5.98764">
        <ele>1990.55</ele>
        <time>2016-02-27T09:56:30Z</time>
      </trkpt>
      <trkpt lat="45.20486" lon="5.9877">
        <ele>1995.83</ele>
        <time>2016-02-27T09:57:00Z</time>
      </trkpt>
      <trkpt lat="45.20473" lon="5.98775">
        <ele>1998.72</ele>
        <time>2016-02-27T09:57:30Z</time>
      </trkpt>
      <trkpt lat="45.20465" lon="5.98781">
        <ele>2002.56</ele>
        <time>2016-02-27T09:58:00Z</time>
      </trkpt>
      <trkpt lat="45.20461" lon="5.98773">
        <ele>2005.45</ele>
        <time>2016-02-27T09:58:30Z</time>
      </trkpt>
      <trkpt lat="45.20463" lon="5.98757">
        <ele>2008.81</ele>
        <time>2016-02-27T09:59:00Z</time>
      </trkpt>
      <trkpt lat="45.20466" lon="5.98742">
        <ele>2011.22</ele>
        <time>2016-02-27T09:59:30Z</time>
      </trkpt>
      <trkpt lat="45.20467" lon="5.98738">
        <ele>2013.62</ele>
        <time>2016-02-27T10:00:00Z</time>
      </trkpt>
      <trkpt lat="45.20457" lon="5.98745">
        <ele>2016.02</ele>
        <time>2016-02-27T10:00:30Z</time>
      </trkpt>
      <trkpt lat="45.20446" lon="5.98754">
        <ele>2019.39</ele>
        <time>2016-02-27T10:01:00Z</time>
      </trkpt>
      <trkpt lat="45.20439" lon="5.98757">
        <ele>2021.79</ele>
        <time>2016-02-27T10:01:30Z</time>
      </trkpt>
      <trkpt lat="45.20431" lon="5.98762">
        <ele>2022.75</ele>
        <time>2016-02-27T10:02:00Z</time>
      </trkpt>
      <trkpt lat="45.20428" lon="5.98758">
        <ele>2029</ele>
        <time>2016-02-27T10:02:30Z</time>
      </trkpt>
      <trkpt lat="45.20431" lon="5.98744">
        <ele>2027.56</ele>
        <time>2016-02-27T10:03:00Z</time>
      </trkpt>
      <trkpt lat="45.20432" lon="5.98734">
        <ele>2029.96</ele>
        <time>2016-02-27T10:03:30Z</time>
      </trkpt>
      <trkpt lat="45.2043" lon="5.98739">
        <ele>2031.88</ele>
        <time>2016-02-27T10:04:00Z</time>
      </trkpt>
      <trkpt lat="45.2042" lon="5.98745">
        <ele>2036.69</ele>
        <time>2016-02-27T10:04:30Z</time>
      </trkpt>
      <trkpt lat="45.20411" lon="5.98753">
        <ele>2038.13</ele>
        <time>2016-02-27T10:05:00Z</time>
      </trkpt>
      <trkpt lat="45.20401" lon="5.98766">
        <ele>2041.98</ele>
        <time>2016-02-27T10:05:30Z</time>
      </trkpt>
      <trkpt lat="45.20395" lon="5.9878">
        <ele>2047.75</ele>
        <time>2016-02-27T10:06:00Z</time>
      </trkpt>
      <trkpt lat="45.20386" lon="5.9879">
        <ele>2056.4</ele>
        <time>2016-02-27T10:06:30Z</time>
      </trkpt>
      <trkpt lat="45.2038" lon="5.98791">
        <ele>2049.67</ele>
        <time>2016-02-27T10:07:00Z</time>
      </trkpt>
      <trkpt lat="45.20381" lon="5.9879">
        <ele>2051.11</ele>
        <time>2016-02-27T10:07:30Z</time>
      </trkpt>
      <trkpt lat="45.2038" lon="5.98791">
        <ele>2051.11</ele>
        <time>2016-02-27T10:08:00Z</time>
      </trkpt>
      <trkpt lat="45.20371" lon="5.98789">
        <ele>2051.59</ele>
        <time>2016-02-27T10:08:30Z</time>
      </trkpt>
      <trkpt lat="45.20359" lon="5.98788">
        <ele>2053.03</ele>
        <time>2016-02-27T10:09:00Z</time>
      </trkpt>
      <trkpt lat="45.20347" lon="5.98784">
        <ele>2055.92</ele>
        <time>2016-02-27T10:09:30Z</time>
      </trkpt>
      <trkpt lat="45.20337" lon="5.98783">
        <ele>2061.68</ele>
        <time>2016-02-27T10:10:00Z</time>
      </trkpt>
      <trkpt lat="45.2033" lon="5.98781">
        <ele>2061.2</ele>
        <time>2016-02-27T10:10:30Z</time>
      </trkpt>
      <trkpt lat="45.20319" lon="5.98779">
        <ele>2067.45</ele>
        <time>2016-02-27T10:11:00Z</time>
      </trkpt>
      <trkpt lat="45.20309" lon="5.98774">
        <ele>2069.38</ele>
        <time>2016-02-27T10:11:30Z</time>
      </trkpt>
      <trkpt lat="45.20295" lon="5.98774">
        <ele>2073.7</ele>
        <time>2016-02-27T10:12:00Z</time>
      </trkpt>
      <trkpt lat="45.20286" lon="5.98773">
        <ele>2075.62</ele>
        <time>2016-02-27T10:12:30Z</time>
      </trkpt>
      <trkpt lat="45.20275" lon="5.98774">
        <ele>2078.51</ele>
        <time>2016-02-27T10:13:00Z</time>
      </trkpt>
      <trkpt lat="45.20268" lon="5.98775">
        <ele>2082.83</ele>
        <time>2016-02-27T10:13:30Z</time>
      </trkpt>
      <trkpt lat="45.20255" lon="5.98772">
        <ele>2086.2</ele>
        <time>2016-02-27T10:14:00Z</time>
      </trkpt>
      <trkpt lat="45.20246" lon="5.98774">
        <ele>2089.56</ele>
        <time>2016-02-27T10:14:30Z</time>
      </trkpt>
      <trkpt lat="45.20239" lon="5.98776">
        <ele>2089.56</ele>
        <time>2016-02-27T10:15:00Z</time>
      </trkpt>
      <trkpt lat="45.20236" lon="5.98773">
        <ele>2091.97</ele>
        <time>2016-02-27T10:15:30Z</time>
      </trkpt>
      <trkpt lat="45.20231" lon="5.98774">
        <ele>2093.41</ele>
        <time>2016-02-27T10:16:00Z</time>
      </trkpt>
      <trkpt lat="45.20231" lon="5.98774">
        <ele>2093.41</ele>
        <time>2016-02-27T10:16:30Z</time>
      </trkpt>
      <trkpt lat="45.20233" lon="5.98777">
        <ele>2093.89</ele>
        <time>2016-02-27T10:17:00Z</time>
      </trkpt>
      <trkpt lat="45.20229" lon="5.98774">
        <ele>2095.81</ele>
        <time>2016-02-27T10:17:30Z</time>
      </trkpt>
      <trkpt lat="45.2022" lon="5.98774">
        <ele>2097.73</ele>
        <time>2016-02-27T10:18:00Z</time>
      </trkpt>
      <trkpt lat="45.20217" lon="5.98771">
        <ele>2097.25</ele>
        <time>2016-02-27T10:18:30Z</time>
      </trkpt>
      <trkpt lat="45.20217" lon="5.98771">
        <ele>2097.73</ele>
        <time>2016-02-27T10:19:00Z</time>
      </trkpt>
      <trkpt lat="45.20213" lon="5.98774">
        <ele>2097.25</ele>
        <time>2016-02-27T10:19:30Z</time>
      </trkpt>
      <trkpt lat="45.20213" lon="5.98775">
        <ele>2093.41</ele>
        <time>2016-02-27T10:20:00Z</time>
      </trkpt>
      <trkpt lat="45.20213" lon="5.98775">
        <ele>2090.04</ele>
        <time>2016-02-27T10:20:30Z</time>
      </trkpt>
      <trkpt lat="45.20213" lon="5.98772">
        <ele>2096.29</ele>
        <time>2016-02-27T10:21:00Z</time>
      </trkpt>
      <trkpt lat="45.20212" lon="5.98773">
        <ele>2097.73</ele>
        <time>2016-02-27T10:21:30Z</time>
      </trkpt>
      <trkpt lat="45.20211" lon="5.98772">
        <ele>2096.29</ele>
        <time>2016-02-27T10:22:00Z</time>
      </trkpt>
      <trkpt lat="45.2021" lon="5.98775">
        <ele>2098.7</ele>
        <time>2016-02-27T10:22:30Z</time>
      </trkpt>
      <trkpt lat="45.20211" lon="5.98778">
        <ele>2098.7</ele>
        <time>2016-02-27T10:23:00Z</time>
      </trkpt>
      <trkpt lat="45.20213" lon="5.98774">
        <ele>2096.29</ele>
        <time>2016-02-27T10:23:30Z</time>
      </trkpt>
      <trkpt lat="45.20212" lon="5.98774">
        <ele>2098.7</ele>
        <time>2016-02-27T10:24:00Z</time>
      </trkpt>
      <trkpt lat="45.2021" lon="5.98771">
        <ele>2097.25</ele>
        <time>2016-02-27T10:24:30Z</time>
      </trkpt>
      <trkpt lat="45.20213" lon="5.98771">
        <ele>2096.29</ele>
        <time>2016-02-27T10:25:00Z</time>
      </trkpt>
      <trkpt lat="45.20208" lon="5.98765">
        <ele>2098.21</ele>
        <time>2016-02-27T10:25:30Z</time>
      </trkpt>
      <trkpt lat="45.20209" lon="5.98771">
        <ele>2098.7</ele>
        <time>2016-02-27T10:26:00Z</time>
      </trkpt>
      <trkpt lat="45.20213" lon="5.98775">
        <ele>2098.21</ele>
        <time>2016-02-27T10:26:30Z</time>
      </trkpt>
      <trkpt lat="45.20209" lon="5.98775">
        <ele>2096.29</ele>
        <time>2016-02-27T10:27:00Z</time>
      </trkpt>
      <trkpt lat="45.2021" lon="5.98774">
        <ele>2097.25</ele>
        <time>2016-02-27T10:27:30Z</time>
      </trkpt>
      <trkpt lat="45.20207" lon="5.98771">
        <ele>2097.25</ele>
        <time>2016-02-27T10:28:00Z</time>
      </trkpt>
      <trkpt lat="45.20208" lon="5.9877">
        <ele>2098.21</ele>
        <time>2016-02-27T10:28:30Z</time>
      </trkpt>
      <trkpt lat="45.20208" lon="5.98773">
        <ele>2097.25</ele>
        <time>2016-02-27T10:29:00Z</time>
      </trkpt>
      <trkpt lat="45.20209" lon="5.98775">
        <ele>2095.81</ele>
        <time>2016-02-27T10:29:30Z</time>
      </trkpt>
      <trkpt lat="45.2021" lon="5.98775">
        <ele>2095.33</ele>
        <time>2016-02-27T10:30:00Z</time>
      </trkpt>
      <trkpt lat="45.20208" lon="5.98772">
        <ele>2094.85</ele>
        <time>2016-02-27T10:30:30Z</time>
      </trkpt>
      <trkpt lat="45.20209" lon="5.98773">
        <ele>2095.33</ele>
        <time>2016-02-27T10:31:00Z</time>
      </trkpt>
      <trkpt lat="45.20211" lon="5.98773">
        <ele>2094.85</ele>
        <time>2016-02-27T10:31:30Z</time>
      </trkpt>
      <trkpt lat="45.20212" lon="5.98772">
        <ele>2093.41</ele>
        <time>2016-02-27T10:32:00Z</time>
      </trkpt>
      <trkpt lat="45.20212" lon="5.98774">
        <ele>2094.85</ele>
        <time>2016-02-27T10:32:30Z</time>
      </trkpt>
      <trkpt lat="45.20213" lon="5.98774">
        <ele>2097.73</ele>
        <time>2016-02-27T10:33:00Z</time>
      </trkpt>
      <trkpt lat="45.20213" lon="5.98774">
        <ele>2097.73</ele>
        <time>2016-02-27T10:33:30Z</time>
      </trkpt>
      <trkpt lat="45.20211" lon="5.98773">
        <ele>2094.85</ele>
        <time>2016-02-27T10:34:00Z</time>
      </trkpt>
      <trkpt lat="45.2021" lon="5.9877">
        <ele>2096.29</ele>
        <time>2016-02-27T10:34:30Z</time>
      </trkpt>
      <trkpt lat="45.20209" lon="5.98772">
        <ele>2096.29</ele>
        <time>2016-02-27T10:35:00Z</time>
      </trkpt>
      <trkpt lat="45.20211" lon="5.98771">
        <ele>2094.85</ele>
        <time>2016-02-27T10:35:30Z</time>
      </trkpt>
      <trkpt lat="45.20209" lon="5.98775">
        <ele>2094.37</ele>
        <time>2016-02-27T10:36:00Z</time>
      </trkpt>
      <trkpt lat="45.20211" lon="5.98774">
        <ele>2095.81</ele>
        <time>2016-02-27T10:36:30Z</time>
      </trkpt>
      <trkpt lat="45.20213" lon="5.98773">
        <ele>2096.77</ele>
        <time>2016-02-27T10:37:00Z</time>
      </trkpt>
      <trkpt lat="45.2021" lon="5.98773">
        <ele>2097.25</ele>
        <time>2016-02-27T10:37:30Z</time>
      </trkpt>
      <trkpt lat="45.20212" lon="5.98775">
        <ele>2096.29</ele>
        <time>2016-02-27T10:38:00Z</time>
      </trkpt>
      <trkpt lat="45.20212" lon="5.98774">
        <ele>2096.29</ele>
        <time>2016-02-27T10:38:30Z</time>
      </trkpt>
      <trkpt lat="45.20209" lon="5.98775">
        <ele>2096.77</ele>
        <time>2016-02-27T10:39:00Z</time>
      </trkpt>
      <trkpt lat="45.2021" lon="5.98774">
        <ele>2097.25</ele>
        <time>2016-02-27T10:39:30Z</time>
      </trkpt>
      <trkpt lat="45.2021" lon="5.98772">
        <ele>2097.73</ele>
        <time>2016-02-27T10:40:00Z</time>
      </trkpt>
      <trkpt lat="45.2023" lon="5.98772">
        <ele>2092.93</ele>
        <time>2016-02-27T10:40:30Z</time>
      </trkpt>
      <trkpt lat="45.20295" lon="5.98756">
        <ele>2078.99</ele>
        <time>2016-02-27T10:41:00Z</time>
      </trkpt>
      <trkpt lat="45.20349" lon="5.98747">
        <ele>2068.89</ele>
        <time>2016-02-27T10:41:30Z</time>
      </trkpt>
      <trkpt lat="45.20351" lon="5.98747">
        <ele>2069.86</ele>
        <time>2016-02-27T10:42:00Z</time>
      </trkpt>
      <trkpt lat="45.20355" lon="5.98752">
        <ele>2070.34</ele>
        <time>2016-02-27T10:42:30Z</time>
      </trkpt>
      <trkpt lat="45.20375" lon="5.988">
        <ele>2048.71</ele>
        <time>2016-02-27T10:43:00Z</time>
      </trkpt>
      <trkpt lat="45.2039" lon="5.98787">
        <ele>2043.42</ele>
        <time>2016-02-27T10:43:30Z</time>
      </trkpt>
      <trkpt lat="45.20393" lon="5.98791">
        <ele>2045.34</ele>
        <time>2016-02-27T10:44:00Z</time>
      </trkpt>
      <trkpt lat="45.20394" lon="5.98783">
        <ele>2043.9</ele>
        <time>2016-02-27T10:44:30Z</time>
      </trkpt>
      <trkpt lat="45.20399" lon="5.98777">
        <ele>2042.94</ele>
        <time>2016-02-27T10:45:00Z</time>
      </trkpt>
      <trkpt lat="45.20441" lon="5.98735">
        <ele>2031.4</ele>
        <time>2016-02-27T10:45:30Z</time>
      </trkpt>
      <trkpt lat="45.20455" lon="5.98722">
        <ele>2031.4</ele>
        <time>2016-02-27T10:45:59Z</time>
      </trkpt>
      <trkpt lat="45.20461" lon="5.9872">
        <ele>2027.56</ele>
        <time>2016-02-27T10:46:30Z</time>
      </trkpt>
      <trkpt lat="45.20463" lon="5.98712">
        <ele>2031.4</ele>
        <time>2016-02-27T10:47:00Z</time>
      </trkpt>
      <trkpt lat="45.20465" lon="5.98712">
        <ele>2029.96</ele>
        <time>2016-02-27T10:47:30Z</time>
      </trkpt>
      <trkpt lat="45.20526" lon="5.98673">
        <ele>2005.93</ele>
        <time>2016-02-27T10:48:00Z</time>
      </trkpt>
      <trkpt lat="45.20529" lon="5.9867">
        <ele>2006.89</ele>
        <time>2016-02-27T10:48:30Z</time>
      </trkpt>
      <trkpt lat="45.20523" lon="5.98682">
        <ele>2001.12</ele>
        <time>2016-02-27T10:49:00Z</time>
      </trkpt>
      <trkpt lat="45.20544" lon="5.98716">
        <ele>1984.3</ele>
        <time>2016-02-27T10:49:30Z</time>
      </trkpt>
      <trkpt lat="45.20558" lon="5.98733">
        <ele>1971.32</ele>
        <time>2016-02-27T10:50:00Z</time>
      </trkpt>
      <trkpt lat="45.20571" lon="5.98721">
        <ele>1970.84</ele>
        <time>2016-02-27T10:50:30Z</time>
      </trkpt>
      <trkpt lat="45.2059" lon="5.98725">
        <ele>1956.9</ele>
        <time>2016-02-27T10:51:00Z</time>
      </trkpt>
      <trkpt lat="45.20598" lon="5.98694">
        <ele>1955.46</ele>
        <time>2016-02-27T10:51:30Z</time>
      </trkpt>
      <trkpt lat="45.20602" lon="5.98667">
        <ele>1950.65</ele>
        <time>2016-02-27T10:52:00Z</time>
      </trkpt>
      <trkpt lat="45.20634" lon="5.9864">
        <ele>1943.92</ele>
        <time>2016-02-27T10:52:30Z</time>
      </trkpt>
      <trkpt lat="45.20664" lon="5.98619">
        <ele>1939.12</ele>
        <time>2016-02-27T10:53:00Z</time>
      </trkpt>
      <trkpt lat="45.20687" lon="5.98613">
        <ele>1936.23</ele>
        <time>2016-02-27T10:53:30Z</time>
      </trkpt>
      <trkpt lat="45.20699" lon="5.9861">
        <ele>1935.75</ele>
        <time>2016-02-27T10:54:00Z</time>
      </trkpt>
      <trkpt lat="45.20705" lon="5.986">
        <ele>1932.87</ele>
        <time>2016-02-27T10:54:30Z</time>
      </trkpt>
      <trkpt lat="45.20704" lon="5.98599">
        <ele>1933.35</ele>
        <time>2016-02-27T10:55:00Z</time>
      </trkpt>
      <trkpt lat="45.20709" lon="5.98605">
        <ele>1934.31</ele>
        <time>2016-02-27T10:55:29Z</time>
      </trkpt>
      <trkpt lat="45.20699" lon="5.98599">
        <ele>1934.31</ele>
        <time>2016-02-27T10:56:00Z</time>
      </trkpt>
      <trkpt lat="45.20721" lon="5.98596">
        <ele>1933.35</ele>
        <time>2016-02-27T10:56:30Z</time>
      </trkpt>
      <trkpt lat="45.20727" lon="5.98598">
        <ele>1932.87</ele>
        <time>2016-02-27T10:56:59Z</time>
      </trkpt>
      <trkpt lat="45.20763" lon="5.98591">
        <ele>1927.58</ele>
        <time>2016-02-27T10:57:29Z</time>
      </trkpt>
      <trkpt lat="45.20781" lon="5.98579">
        <ele>1927.1</ele>
        <time>2016-02-27T10:57:59Z</time>
      </trkpt>
      <trkpt lat="45.20798" lon="5.98575">
        <ele>1926.62</ele>
        <time>2016-02-27T10:58:29Z</time>
      </trkpt>
      <trkpt lat="45.20814" lon="5.98573">
        <ele>1924.22</ele>
        <time>2016-02-27T10:58:59Z</time>
      </trkpt>
      <trkpt lat="45.20824" lon="5.98577">
        <ele>1925.18</ele>
        <time>2016-02-27T10:59:29Z</time>
      </trkpt>
      <trkpt lat="45.2083" lon="5.98575">
        <ele>1926.14</ele>
        <time>2016-02-27T10:59:59Z</time>
      </trkpt>
      <trkpt lat="45.2084" lon="5.98574">
        <ele>1929.02</ele>
        <time>2016-02-27T11:00:29Z</time>
      </trkpt>
      <trkpt lat="45.20849" lon="5.98575">
        <ele>1931.43</ele>
        <time>2016-02-27T11:00:59Z</time>
      </trkpt>
      <trkpt lat="45.20853" lon="5.98576">
        <ele>1931.43</ele>
        <time>2016-02-27T11:01:29Z</time>
      </trkpt>
      <trkpt lat="45.2086" lon="5.98575">
        <ele>1933.35</ele>
        <time>2016-02-27T11:01:59Z</time>
      </trkpt>
      <trkpt lat="45.20874" lon="5.98583">
        <ele>1935.27</ele>
        <time>2016-02-27T11:02:29Z</time>
      </trkpt>
      <trkpt lat="45.20885" lon="5.98591">
        <ele>1938.64</ele>
        <time>2016-02-27T11:02:59Z</time>
      </trkpt>
      <trkpt lat="45.209" lon="5.98592">
        <ele>1939.12</ele>
        <time>2016-02-27T11:03:29Z</time>
      </trkpt>
      <trkpt lat="45.20913" lon="5.98593">
        <ele>1939.12</ele>
        <time>2016-02-27T11:03:59Z</time>
      </trkpt>
      <trkpt lat="45.20929" lon="5.98594">
        <ele>1937.67</ele>
        <time>2016-02-27T11:04:29Z</time>
      </trkpt>
      <trkpt lat="45.20936" lon="5.98598">
        <ele>1940.08</ele>
        <time>2016-02-27T11:04:59Z</time>
      </trkpt>
      <trkpt lat="45.20944" lon="5.98601">
        <ele>1942.96</ele>
        <time>2016-02-27T11:05:29Z</time>
      </trkpt>
      <trkpt lat="45.20962" lon="5.98609">
        <ele>1951.61</ele>
        <time>2016-02-27T11:05:59Z</time>
      </trkpt>
      <trkpt lat="45.20971" lon="5.98614">
        <ele>1954.02</ele>
        <time>2016-02-27T11:06:28Z</time>
      </trkpt>
      <trkpt lat="45.2098" lon="5.98621">
        <ele>1954.5</ele>
        <time>2016-02-27T11:06:59Z</time>
      </trkpt>
      <trkpt lat="45.20985" lon="5.98632">
        <ele>1947.77</ele>
        <time>2016-02-27T11:07:29Z</time>
      </trkpt>
      <trkpt lat="45.21002" lon="5.98625">
        <ele>1936.71</ele>
        <time>2016-02-27T11:07:59Z</time>
      </trkpt>
      <trkpt lat="45.21052" lon="5.98608">
        <ele>1915.08</ele>
        <time>2016-02-27T11:08:29Z</time>
      </trkpt>
      <trkpt lat="45.21051" lon="5.98601">
        <ele>1899.7</ele>
        <time>2016-02-27T11:08:59Z</time>
      </trkpt>
      <trkpt lat="45.21083" lon="5.98575">
        <ele>1876.63</ele>
        <time>2016-02-27T11:09:28Z</time>
      </trkpt>
      <trkpt lat="45.21123" lon="5.9854">
        <ele>1861.25</ele>
        <time>2016-02-27T11:09:58Z</time>
      </trkpt>
      <trkpt lat="45.21132" lon="5.9854">
        <ele>1846.35</ele>
        <time>2016-02-27T11:10:29Z</time>
      </trkpt>
      <trkpt lat="45.21133" lon="5.98558">
        <ele>1840.58</ele>
        <time>2016-02-27T11:10:59Z</time>
      </trkpt>
      <trkpt lat="45.21141" lon="5.9859">
        <ele>1819.91</ele>
        <time>2016-02-27T11:11:29Z</time>
      </trkpt>
      <trkpt lat="45.21148" lon="5.98623">
        <ele>1811.26</ele>
        <time>2016-02-27T11:11:59Z</time>
      </trkpt>
      <trkpt lat="45.21164" lon="5.98606">
        <ele>1804.05</ele>
        <time>2016-02-27T11:12:29Z</time>
      </trkpt>
      <trkpt lat="45.21178" lon="5.98599">
        <ele>1799.24</ele>
        <time>2016-02-27T11:12:59Z</time>
      </trkpt>
      <trkpt lat="45.21179" lon="5.9862">
        <ele>1791.55</ele>
        <time>2016-02-27T11:13:29Z</time>
      </trkpt>
      <trkpt lat="45.21227" lon="5.98582">
        <ele>1777.13</ele>
        <time>2016-02-27T11:13:59Z</time>
      </trkpt>
      <trkpt lat="45.21232" lon="5.98527">
        <ele>1771.37</ele>
        <time>2016-02-27T11:14:28Z</time>
      </trkpt>
      <trkpt lat="45.21241" lon="5.98539">
        <ele>1769.44</ele>
        <time>2016-02-27T11:14:58Z</time>
      </trkpt>
      <trkpt lat="45.21227" lon="5.98478">
        <ele>1760.31</ele>
        <time>2016-02-27T11:15:28Z</time>
      </trkpt>
      <trkpt lat="45.21233" lon="5.98449">
        <ele>1753.58</ele>
        <time>2016-02-27T11:15:58Z</time>
      </trkpt>
      <trkpt lat="45.21268" lon="5.9848">
        <ele>1719.46</ele>
        <time>2016-02-27T11:16:27Z</time>
      </trkpt>
      <trkpt lat="45.21293" lon="5.98501">
        <ele>1703.11</ele>
        <time>2016-02-27T11:16:58Z</time>
      </trkpt>
      <trkpt lat="45.21326" lon="5.9853">
        <ele>1676.68</ele>
        <time>2016-02-27T11:17:28Z</time>
      </trkpt>
      <trkpt lat="45.21311" lon="5.98524">
        <ele>1679.56</ele>
        <time>2016-02-27T11:17:58Z</time>
      </trkpt>
      <trkpt lat="45.2136" lon="5.98562">
        <ele>1638.22</ele>
        <time>2016-02-27T11:18:28Z</time>
      </trkpt>
      <trkpt lat="45.21357" lon="5.98609">
        <ele>1637.74</ele>
        <time>2016-02-27T11:18:58Z</time>
      </trkpt>
      <trkpt lat="45.21359" lon="5.98628">
        <ele>1627.17</ele>
        <time>2016-02-27T11:19:27Z</time>
      </trkpt>
      <trkpt lat="45.21402" lon="5.98629">
        <ele>1609.86</ele>
        <time>2016-02-27T11:19:58Z</time>
      </trkpt>
      <trkpt lat="45.21422" lon="5.98652">
        <ele>1593.52</ele>
        <time>2016-02-27T11:20:27Z</time>
      </trkpt>
      <trkpt lat="45.21439" lon="5.98664">
        <ele>1584.87</ele>
        <time>2016-02-27T11:20:57Z</time>
      </trkpt>
      <trkpt lat="45.21443" lon="5.98671">
        <ele>1582.47</ele>
        <time>2016-02-27T11:21:27Z</time>
      </trkpt>
      <trkpt lat="45.21455" lon="5.98673">
        <ele>1579.1</ele>
        <time>2016-02-27T11:21:57Z</time>
      </trkpt>
      <trkpt lat="45.21429" lon="5.98693">
        <ele>1569.97</ele>
        <time>2016-02-27T11:22:27Z</time>
      </trkpt>
      <trkpt lat="45.21463" lon="5.98742">
        <ele>1549.78</ele>
        <time>2016-02-27T11:22:57Z</time>
      </trkpt>
      <trkpt lat="45.21481" lon="5.98741">
        <ele>1539.21</ele>
        <time>2016-02-27T11:23:27Z</time>
      </trkpt>
      <trkpt lat="45.21499" lon="5.98762">
        <ele>1530.56</ele>
        <time>2016-02-27T11:23:57Z</time>
      </trkpt>
      <trkpt lat="45.21518" lon="5.98757">
        <ele>1521.42</ele>
        <time>2016-02-27T11:24:27Z</time>
      </trkpt>
      <trkpt lat="45.21536" lon="5.98752">
        <ele>1514.21</ele>
        <time>2016-02-27T11:24:57Z</time>
      </trkpt>
      <trkpt lat="45.21565" lon="5.98775">
        <ele>1503.16</ele>
        <time>2016-02-27T11:25:26Z</time>
      </trkpt>
      <trkpt lat="45.21603" lon="5.98791">
        <ele>1490.18</ele>
        <time>2016-02-27T11:25:56Z</time>
      </trkpt>
      <trkpt lat="45.21605" lon="5.98798">
        <ele>1490.18</ele>
        <time>2016-02-27T11:26:26Z</time>
      </trkpt>
      <trkpt lat="45.21645" lon="5.9888">
        <ele>1471.44</ele>
        <time>2016-02-27T11:26:56Z</time>
      </trkpt>
      <trkpt lat="45.21728" lon="5.98963">
        <ele>1448.36</ele>
        <time>2016-02-27T11:27:26Z</time>
      </trkpt>
      <trkpt lat="45.21797" lon="5.99056">
        <ele>1436.35</ele>
        <time>2016-02-27T11:27:55Z</time>
      </trkpt>
      <trkpt lat="45.21803" lon="5.99078">
        <ele>1433.46</ele>
        <time>2016-02-27T11:28:25Z</time>
      </trkpt>
      <trkpt lat="45.21803" lon="5.9908">
        <ele>1432.98</ele>
        <time>2016-02-27T11:28:55Z</time>
      </trkpt>
      <trkpt lat="45.21805" lon="5.99092">
        <ele>1432.98</ele>
        <time>2016-02-27T11:29:25Z</time>
      </trkpt>
      <trkpt lat="45.21805" lon="5.99105">
        <ele>1433.46</ele>
        <time>2016-02-27T11:29:55Z</time>
      </trkpt>
      <trkpt lat="45.21817" lon="5.9912">
        <ele>1434.91</ele>
        <time>2016-02-27T11:30:24Z</time>
      </trkpt>
      <trkpt lat="45.21823" lon="5.99123">
        <ele>1437.31</ele>
        <time>2016-02-27T11:30:54Z</time>
      </trkpt>
      <trkpt lat="45.21827" lon="5.99128">
        <ele>1439.71</ele>
        <time>2016-02-27T11:31:24Z</time>
      </trkpt>
      <trkpt lat="45.21841" lon="5.99157">
        <ele>1439.23</ele>
        <time>2016-02-27T11:31:54Z</time>
      </trkpt>
      <trkpt lat="45.21909" lon="5.99299">
        <ele>1432.5</ele>
        <time>2016-02-27T11:32:24Z</time>
      </trkpt>
      <trkpt lat="45.2193" lon="5.99425">
        <ele>1422.41</ele>
        <time>2016-02-27T11:32:54Z</time>
      </trkpt>
      <trkpt lat="45.21994" lon="5.9951">
        <ele>1421.45</ele>
        <time>2016-02-27T11:33:24Z</time>
      </trkpt>
      <trkpt lat="45.21986" lon="5.99527">
        <ele>1422.41</ele>
        <time>2016-02-27T11:33:54Z</time>
      </trkpt>
      <trkpt lat="45.21979" lon="5.99529">
        <ele>1422.41</ele>
        <time>2016-02-27T11:34:24Z</time>
      </trkpt>
      <trkpt lat="45.21978" lon="5.99532">
        <ele>1421.45</ele>
        <time>2016-02-27T11:34:54Z</time>
      </trkpt>
      <trkpt lat="45.21977" lon="5.9953">
        <ele>1421.93</ele>
        <time>2016-02-27T11:35:24Z</time>
      </trkpt>
      <trkpt lat="45.21972" lon="5.99532">
        <ele>1421.93</ele>
        <time>2016-02-27T11:35:54Z</time>
      </trkpt>
      <trkpt lat="45.21973" lon="5.99532">
        <ele>1422.89</ele>
        <time>2016-02-27T11:36:24Z</time>
      </trkpt>
      <trkpt lat="45.21974" lon="5.99532">
        <ele>1420.97</ele>
        <time>2016-02-27T11:36:54Z</time>
      </trkpt>
      <trkpt lat="45.21972" lon="5.99532">
        <ele>1420.49</ele>
        <time>2016-02-27T11:37:24Z</time>
      </trkpt>
      <trkpt lat="45.21976" lon="5.9953">
        <ele>1420</ele>
        <time>2016-02-27T11:37:54Z</time>
      </trkpt>
      <trkpt lat="45.21978" lon="5.99531">
        <ele>1420.49</ele>
        <time>2016-02-27T11:38:24Z</time>
      </trkpt>
      <trkpt lat="45.21976" lon="5.99535">
        <ele>1420.49</ele>
        <time>2016-02-27T11:38:54Z</time>
      </trkpt>
      <trkpt lat="45.2203" lon="5.9956">
        <ele>1411.35</ele>
        <time>2016-02-27T11:39:24Z</time>
      </trkpt>
      <trkpt lat="45.22111" lon="5.99635">
        <ele>1403.66</ele>
        <time>2016-02-27T11:39:54Z</time>
      </trkpt>
      <trkpt lat="45.22123" lon="5.99636">
        <ele>1403.18</ele>
        <time>2016-02-27T11:40:24Z</time>
      </trkpt>
      <trkpt lat="45.22122" lon="5.99646">
        <ele>1401.74</ele>
        <time>2016-02-27T11:40:54Z</time>
      </trkpt>
      <trkpt lat="45.22125" lon="5.99647">
        <ele>1400.3</ele>
        <time>2016-02-27T11:41:24Z</time>
      </trkpt>
      <trkpt lat="45.22135" lon="5.9964">
        <ele>1403.18</ele>
        <time>2016-02-27T11:41:54Z</time>
      </trkpt>
      <trkpt lat="45.22129" lon="5.99644">
        <ele>1402.7</ele>
        <time>2016-02-27T11:42:24Z</time>
      </trkpt>
      <trkpt lat="45.2213" lon="5.99644">
        <ele>1402.22</ele>
        <time>2016-02-27T11:42:54Z</time>
      </trkpt>
      <trkpt lat="45.22134" lon="5.99642">
        <ele>1404.62</ele>
        <time>2016-02-27T11:43:24Z</time>
      </trkpt>
      <trkpt lat="45.22141" lon="5.9964">
        <ele>1404.14</ele>
        <time>2016-02-27T11:43:54Z</time>
      </trkpt>
      <trkpt lat="45.22135" lon="5.99639">
        <ele>1404.62</ele>
        <time>2016-02-27T11:44:24Z</time>
      </trkpt>
      <trkpt lat="45.2213" lon="5.99647">
        <ele>1405.1</ele>
        <time>2016-02-27T11:44:54Z</time>
      </trkpt>
      <trkpt lat="45.22136" lon="5.99647">
        <ele>1405.58</ele>
        <time>2016-02-27T11:45:23Z</time>
      </trkpt>
      <trkpt lat="45.22132" lon="5.99647">
        <ele>1407.03</ele>
        <time>2016-02-27T11:45:54Z</time>
      </trkpt>
      <trkpt lat="45.22132" lon="5.9964">
        <ele>1407.51</ele>
        <time>2016-02-27T11:46:24Z</time>
      </trkpt>
      <trkpt lat="45.22149" lon="5.99643">
        <ele>1407.03</ele>
        <time>2016-02-27T11:46:54Z</time>
      </trkpt>
      <trkpt lat="45.22147" lon="5.9964">
        <ele>1406.55</ele>
        <time>2016-02-27T11:47:23Z</time>
      </trkpt>
      <trkpt lat="45.22144" lon="5.99637">
        <ele>1407.99</ele>
        <time>2016-02-27T11:47:53Z</time>
      </trkpt>
      <trkpt lat="45.22145" lon="5.99639">
        <ele>1404.14</ele>
        <time>2016-02-27T11:48:23Z</time>
      </trkpt>
      <trkpt lat="45.22164" lon="5.99648">
        <ele>1395.01</ele>
        <time>2016-02-27T11:48:53Z</time>
      </trkpt>
      <trkpt lat="45.22205" lon="5.99639">
        <ele>1386.36</ele>
        <time>2016-02-27T11:49:23Z</time>
      </trkpt>
      <trkpt lat="45.22237" lon="5.99624">
        <ele>1377.71</ele>
        <time>2016-02-27T11:49:53Z</time>
      </trkpt>
      <trkpt lat="45.22271" lon="5.99635">
        <ele>1367.61</ele>
        <time>2016-02-27T11:50:23Z</time>
      </trkpt>
      <trkpt lat="45.2231" lon="5.99633">
        <ele>1359.44</ele>
        <time>2016-02-27T11:50:52Z</time>
      </trkpt>
      <trkpt lat="45.22335" lon="5.99601">
        <ele>1351.27</ele>
        <time>2016-02-27T11:51:22Z</time>
      </trkpt>
      <trkpt lat="45.22366" lon="5.99564">
        <ele>1339.25</ele>
        <time>2016-02-27T11:51:52Z</time>
      </trkpt>
      <trkpt lat="45.22388" lon="5.99569">
        <ele>1333.49</ele>
        <time>2016-02-27T11:52:22Z</time>
      </trkpt>
      <trkpt lat="45.2243" lon="5.99586">
        <ele>1327.72</ele>
        <time>2016-02-27T11:52:52Z</time>
      </trkpt>
      <trkpt lat="45.22462" lon="5.99614">
        <ele>1326.76</ele>
        <time>2016-02-27T11:53:21Z</time>
      </trkpt>
      <trkpt lat="45.22474" lon="5.99632">
        <ele>1324.83</ele>
        <time>2016-02-27T11:53:51Z</time>
      </trkpt>
      <trkpt lat="45.22525" lon="5.99636">
        <ele>1323.87</ele>
        <time>2016-02-27T11:54:21Z</time>
      </trkpt>
      <trkpt lat="45.22544" lon="5.99604">
        <ele>1323.39</ele>
        <time>2016-02-27T11:54:51Z</time>
      </trkpt>
      <trkpt lat="45.22554" lon="5.99566">
        <ele>1322.91</ele>
        <time>2016-02-27T11:55:21Z</time>
      </trkpt>
      <trkpt lat="45.22567" lon="5.99508">
        <ele>1323.39</ele>
        <time>2016-02-27T11:55:50Z</time>
      </trkpt>
      <trkpt lat="45.22605" lon="5.99471">
        <ele>1327.24</ele>
        <time>2016-02-27T11:56:20Z</time>
      </trkpt>
      <trkpt lat="45.22613" lon="5.99418">
        <ele>1326.76</ele>
        <time>2016-02-27T11:56:50Z</time>
      </trkpt>
      <trkpt lat="45.22628" lon="5.9939">
        <ele>1326.76</ele>
        <time>2016-02-27T11:57:19Z</time>
      </trkpt>
      <trkpt lat="45.22634" lon="5.99358">
        <ele>1325.8</ele>
        <time>2016-02-27T11:57:50Z</time>
      </trkpt>
      <trkpt lat="45.2265" lon="5.99357">
        <ele>1324.83</ele>
        <time>2016-02-27T11:58:19Z</time>
      </trkpt>
      <trkpt lat="45.22686" lon="5.99355">
        <ele>1325.8</ele>
        <time>2016-02-27T11:58:49Z</time>
      </trkpt>
      <trkpt lat="45.22711" lon="5.99364">
        <ele>1325.8</ele>
        <time>2016-02-27T11:59:19Z</time>
      </trkpt>
      <trkpt lat="45.22727" lon="5.99378">
        <ele>1327.72</ele>
        <time>2016-02-27T11:59:48Z</time>
      </trkpt>
      <trkpt lat="45.22759" lon="5.99374">
        <ele>1330.6</ele>
        <time>2016-02-27T12:00:18Z</time>
      </trkpt>
      <trkpt lat="45.22759" lon="5.99376">
        <ele>1329.64</ele>
        <time>2016-02-27T12:00:48Z</time>
      </trkpt>
      <trkpt lat="45.22754" lon="5.99374">
        <ele>1329.16</ele>
        <time>2016-02-27T12:01:18Z</time>
      </trkpt>
      <trkpt lat="45.22747" lon="5.99373">
        <ele>1328.2</ele>
        <time>2016-02-27T12:01:48Z</time>
      </trkpt>
      <trkpt lat="45.2265" lon="5.99407">
        <ele>1330.12</ele>
        <time>2016-02-27T12:02:18Z</time>
      </trkpt>
      <trkpt lat="45.22659" lon="5.99422">
        <ele>1329.64</ele>
        <time>2016-02-27T12:02:48Z</time>
      </trkpt>
      <trkpt lat="45.22657" lon="5.99416">
        <ele>1329.64</ele>
        <time>2016-02-27T12:03:18Z</time>
      </trkpt>
      <trkpt lat="45.22662" lon="5.99426">
        <ele>1327.72</ele>
        <time>2016-02-27T12:03:35Z</time>
      </trkpt>
    </trkseg>
  </trk>
</gpx>